createdAt,value
2023-07-02T00:00:09.913Z,17.70
2023-07-02T00:02:38.050Z,17.66
2023-07-02T00:05:06.463Z,17.67
2023-07-02T00:07:35.847Z,17.63
2023-07-02T00:10:03.569Z,17.68
2023-07-02T00:12:30.759Z,17.63
2023-07-02T00:14:58.042Z,17.67
2023-07-02T00:17:25.312Z,17.68
2023-07-02T00:19:53.410Z,17.71
2023-07-02T00:22:21.984Z,17.73
2023-07-02T00:24:51.692Z,17.69
2023-07-02T00:27:19.251Z,17.69
2023-07-02T00:29:46.411Z,17.77
2023-07-02T00:32:13.614Z,17.74
2023-07-02T00:34:40.814Z,17.75
2023-07-02T00:37:08.029Z,17.76
2023-07-02T00:39:35.393Z,17.76
2023-07-02T00:42:04.220Z,17.77
2023-07-02T00:44:31.956Z,17.77
2023-07-02T00:46:59.216Z,17.75
2023-07-02T00:49:26.792Z,17.80
2023-07-02T00:51:54.008Z,17.80
2023-07-02T00:54:21.230Z,17.77
2023-07-02T00:56:48.543Z,17.83
2023-07-02T00:59:15.901Z,17.84
2023-07-02T01:01:43.320Z,17.84
2023-07-02T01:04:10.844Z,17.88
2023-07-02T01:06:42.869Z,17.89
2023-07-02T01:09:11.088Z,17.86
2023-07-02T01:11:39.773Z,17.85
2023-07-02T01:14:14.026Z,17.87
2023-07-02T01:16:44.895Z,17.84
2023-07-02T01:19:20.082Z,17.82
2023-07-02T01:21:50.996Z,17.82
2023-07-02T01:24:19.008Z,17.78
2023-07-02T01:26:46.896Z,17.73
2023-07-02T01:29:22.304Z,17.81
2023-07-02T01:31:49.581Z,17.70
2023-07-02T01:34:16.982Z,17.66
2023-07-02T01:36:44.169Z,17.72
2023-07-02T01:39:11.466Z,17.72
2023-07-02T01:41:56.034Z,17.76
2023-07-02T01:44:23.800Z,17.68
2023-07-02T01:46:51.015Z,17.62
2023-07-02T01:49:19.329Z,17.62
2023-07-02T01:51:50.334Z,17.66
2023-07-02T01:54:17.798Z,17.61
2023-07-02T01:56:45.022Z,17.53
2023-07-02T01:59:12.676Z,17.56
2023-07-02T02:01:42.684Z,17.53
2023-07-02T02:04:10.936Z,17.50
2023-07-02T02:06:39.426Z,17.49
2023-07-02T02:09:07.438Z,17.43
2023-07-02T02:11:36.089Z,17.48
2023-07-02T02:14:03.345Z,17.43
2023-07-02T02:16:30.864Z,17.41
2023-07-02T02:18:58.083Z,17.45
2023-07-02T02:21:25.282Z,17.46
2023-07-02T02:23:52.464Z,17.47
2023-07-02T02:26:19.659Z,17.41
2023-07-02T02:28:46.864Z,17.42
2023-07-02T02:31:14.166Z,17.38
2023-07-02T02:33:41.418Z,17.38
2023-07-02T02:36:08.721Z,17.34
2023-07-02T02:38:36.051Z,17.32
2023-07-02T02:41:03.543Z,17.33
2023-07-02T02:43:30.785Z,17.35
2023-07-02T02:45:57.992Z,17.32
2023-07-02T02:48:25.188Z,17.37
2023-07-02T02:50:52.402Z,17.37
2023-07-02T02:53:19.592Z,17.29
2023-07-02T02:55:46.757Z,17.22
2023-07-02T02:58:13.929Z,17.21
2023-07-02T03:00:43.865Z,17.25
2023-07-02T03:03:11.220Z,17.25
2023-07-02T03:05:38.440Z,17.24
2023-07-02T03:08:06.836Z,17.21
2023-07-02T03:10:34.043Z,17.10
2023-07-02T03:13:01.512Z,17.11
2023-07-02T03:15:28.730Z,17.10
2023-07-02T03:17:55.954Z,17.09
2023-07-02T03:20:23.378Z,17.08
2023-07-02T03:22:50.569Z,17.10
2023-07-02T03:25:18.546Z,17.17
2023-07-02T03:27:45.808Z,17.14
2023-07-02T03:30:13.161Z,17.07
2023-07-02T03:32:40.409Z,17.08
2023-07-02T03:35:07.937Z,17.07
2023-07-02T03:37:35.095Z,17.03
2023-07-02T03:40:02.300Z,17.03
2023-07-02T03:42:30.003Z,17.01
2023-07-02T03:44:57.201Z,16.93
2023-07-02T03:47:24.391Z,16.98
2023-07-02T03:49:51.946Z,17.00
2023-07-02T03:52:19.205Z,17.00
2023-07-02T03:54:46.446Z,17.03
2023-07-02T03:57:13.648Z,16.98
2023-07-02T03:59:40.829Z,16.98
2023-07-02T04:02:08.048Z,16.98
2023-07-02T04:04:35.382Z,16.96
2023-07-02T04:07:02.661Z,16.95
2023-07-02T04:09:30.141Z,16.94
2023-07-02T04:11:57.360Z,16.95
2023-07-02T04:14:24.507Z,16.98
2023-07-02T04:16:51.693Z,17.02
2023-07-02T04:19:18.927Z,17.03
2023-07-02T04:21:46.072Z,16.97
2023-07-02T04:24:13.213Z,16.95
2023-07-02T04:26:58.802Z,16.96
2023-07-02T04:29:31.235Z,16.89
2023-07-02T04:31:58.407Z,16.98
2023-07-02T04:34:25.674Z,17.03
2023-07-02T04:36:54.070Z,17.02
2023-07-02T04:39:21.411Z,16.95
2023-07-02T04:41:50.296Z,17.03
2023-07-02T04:44:17.445Z,17.02
2023-07-02T04:46:44.594Z,16.99
2023-07-02T04:49:11.832Z,17.00
2023-07-02T04:51:39.110Z,17.01
2023-07-02T04:54:06.258Z,17.05
2023-07-02T04:56:33.448Z,17.05
2023-07-02T04:59:00.596Z,16.99
2023-07-02T05:01:29.492Z,17.02
2023-07-02T05:03:56.876Z,17.04
2023-07-02T05:06:24.120Z,17.04
2023-07-02T05:08:51.323Z,17.14
2023-07-02T05:11:18.446Z,17.21
2023-07-02T05:13:45.632Z,17.19
2023-07-02T05:16:12.894Z,17.13
2023-07-02T05:18:40.198Z,17.15
2023-07-02T05:21:07.367Z,17.14
2023-07-02T05:23:34.570Z,17.18
2023-07-02T05:26:02.827Z,17.13
2023-07-02T05:28:30.198Z,17.19
2023-07-02T05:30:57.452Z,17.19
2023-07-02T05:33:24.681Z,17.21
2023-07-02T05:35:52.230Z,17.19
2023-07-02T05:38:20.505Z,17.28
2023-07-02T05:40:48.062Z,17.26
2023-07-02T05:43:15.582Z,17.26
2023-07-02T05:45:42.886Z,17.24
2023-07-02T05:48:10.156Z,17.27
2023-07-02T05:50:37.436Z,17.33
2023-07-02T05:53:04.648Z,17.32
2023-07-02T05:55:31.816Z,17.32
2023-07-02T05:58:02.860Z,17.36
2023-07-02T06:00:30.744Z,17.40
2023-07-02T06:02:58.030Z,17.37
2023-07-02T06:05:25.354Z,17.39
2023-07-02T06:07:52.931Z,17.37
2023-07-02T06:10:20.135Z,17.37
2023-07-02T06:12:47.365Z,17.41
2023-07-02T06:15:14.543Z,17.41
2023-07-02T06:17:41.737Z,17.41
2023-07-02T06:20:09.480Z,17.51
2023-07-02T06:22:36.658Z,17.53
2023-07-02T06:25:05.732Z,17.45
2023-07-02T06:27:33.494Z,17.53
2023-07-02T06:30:00.665Z,17.57
2023-07-02T06:32:28.545Z,17.59
2023-07-02T06:34:55.803Z,17.63
2023-07-02T06:37:23.036Z,17.64
2023-07-02T06:39:50.246Z,17.69
2023-07-02T06:42:17.476Z,17.75
2023-07-02T06:44:44.736Z,17.80
2023-07-02T06:47:11.898Z,17.80
2023-07-02T06:49:39.195Z,17.84
2023-07-02T06:52:06.612Z,17.77
2023-07-02T06:54:33.804Z,17.76
2023-07-02T06:57:01.172Z,17.82
2023-07-02T06:59:28.344Z,17.83
2023-07-02T07:01:55.805Z,17.94
2023-07-02T07:04:23.095Z,17.94
2023-07-02T07:06:50.438Z,17.90
2023-07-02T07:09:19.190Z,17.90
2023-07-02T07:11:46.384Z,17.92
2023-07-02T07:14:13.698Z,17.98
2023-07-02T07:16:41.086Z,18.02
2023-07-02T07:19:08.809Z,18.03
2023-07-02T07:21:36.466Z,18.09
2023-07-02T07:24:03.802Z,18.17
2023-07-02T07:26:31.134Z,18.14
2023-07-02T07:28:59.253Z,18.13
2023-07-02T07:31:26.595Z,18.19
2023-07-02T07:33:53.821Z,18.22
2023-07-02T07:36:20.995Z,18.26
2023-07-02T07:38:48.163Z,18.32
2023-07-02T07:41:15.428Z,18.27
2023-07-02T07:43:42.589Z,18.31
2023-07-02T07:46:09.945Z,18.28
2023-07-02T07:48:37.261Z,18.32
2023-07-02T07:51:04.590Z,18.35
2023-07-02T07:53:31.703Z,18.47
2023-07-02T07:55:59.302Z,18.65
2023-07-02T07:58:26.958Z,18.63
2023-07-02T08:00:54.166Z,18.48
2023-07-02T08:03:21.479Z,18.44
2023-07-02T08:05:48.691Z,18.37
2023-07-02T08:08:16.128Z,18.45
2023-07-02T08:10:43.525Z,18.47
2023-07-02T08:13:10.761Z,18.59
2023-07-02T08:15:38.918Z,18.80
2023-07-02T08:18:08.700Z,18.68
2023-07-02T08:20:35.880Z,18.69
2023-07-02T08:23:03.117Z,18.84
2023-07-02T08:25:30.450Z,19.00
2023-07-02T08:27:58.303Z,19.18
2023-07-02T08:30:26.876Z,19.01
2023-07-02T08:32:55.764Z,18.75
2023-07-02T08:35:23.262Z,18.52
2023-07-02T08:37:50.532Z,18.47
2023-07-02T08:40:19.306Z,18.49
2023-07-02T08:42:48.642Z,18.67
2023-07-02T08:45:20.013Z,18.76
2023-07-02T08:47:47.381Z,18.96
2023-07-02T08:50:15.359Z,19.05
2023-07-02T08:52:44.235Z,19.02
2023-07-02T08:55:11.566Z,19.23
2023-07-02T08:57:38.770Z,19.24
2023-07-02T09:00:10.947Z,19.23
2023-07-02T09:02:38.289Z,19.21
2023-07-02T09:05:06.263Z,19.37
2023-07-02T09:07:33.657Z,19.47
2023-07-02T09:10:00.888Z,19.72
2023-07-02T09:12:30.053Z,19.83
2023-07-02T09:15:07.902Z,19.87
2023-07-02T09:17:37.029Z,19.88
2023-07-02T09:20:09.851Z,20.04
2023-07-02T09:22:37.997Z,19.96
2023-07-02T09:25:05.878Z,19.70
2023-07-02T09:27:40.861Z,19.57
2023-07-02T09:30:09.457Z,19.46
2023-07-02T09:32:37.030Z,19.73
2023-07-02T09:35:05.904Z,19.85
2023-07-02T09:37:33.818Z,19.82
2023-07-02T09:40:02.772Z,19.86
2023-07-02T09:42:30.810Z,19.64
2023-07-02T09:45:00.119Z,19.58
2023-07-02T09:47:28.551Z,19.53
2023-07-02T09:50:00.894Z,19.51
2023-07-02T09:52:31.340Z,19.46
2023-07-02T09:54:58.558Z,19.51
2023-07-02T09:57:26.030Z,19.53
2023-07-02T09:59:53.334Z,19.66
2023-07-02T10:02:20.841Z,19.90
2023-07-02T10:04:49.467Z,19.95
2023-07-02T10:07:28.603Z,20.04
2023-07-02T10:09:55.961Z,19.99
2023-07-02T10:12:24.861Z,19.94
2023-07-02T10:14:54.870Z,19.94
2023-07-02T10:17:30.315Z,20.16
2023-07-02T10:20:00.576Z,20.30
2023-07-02T10:22:28.471Z,20.66
2023-07-02T10:25:03.297Z,20.75
2023-07-02T10:27:38.808Z,20.38
2023-07-02T10:30:07.991Z,20.13
2023-07-02T10:32:36.798Z,20.14
2023-07-02T10:35:17.811Z,20.25
2023-07-02T10:37:45.589Z,20.23
2023-07-02T10:40:13.667Z,20.15
2023-07-02T10:42:51.958Z,20.25
2023-07-02T10:45:20.655Z,20.21
2023-07-02T10:47:48.244Z,20.44
2023-07-02T10:50:22.797Z,20.49
2023-07-02T10:52:51.999Z,20.47
2023-07-02T10:55:23.989Z,20.41
2023-07-02T10:58:03.122Z,20.20
2023-07-02T11:00:31.289Z,19.86
2023-07-02T11:02:58.936Z,19.78
2023-07-02T11:05:29.587Z,19.94
2023-07-02T11:08:10.066Z,20.01
2023-07-02T11:10:37.332Z,19.94
2023-07-02T11:13:21.714Z,19.98
2023-07-02T11:15:49.653Z,19.94
2023-07-02T11:18:19.205Z,20.00
2023-07-02T11:20:48.347Z,20.09
2023-07-02T11:23:19.629Z,20.27
2023-07-02T11:26:00.323Z,20.48
2023-07-02T11:28:29.091Z,20.55
2023-07-02T11:30:57.175Z,20.51
2023-07-02T11:33:37.675Z,20.59
2023-07-02T11:36:09.303Z,20.51
2023-07-02T11:38:38.259Z,20.17
2023-07-02T11:41:05.764Z,20.04
2023-07-02T11:43:33.746Z,20.04
2023-07-02T11:46:00.948Z,20.29
2023-07-02T11:48:28.885Z,20.41
2023-07-02T11:50:56.099Z,20.34
2023-07-02T11:53:23.262Z,20.34
2023-07-02T11:55:50.818Z,20.30
2023-07-02T11:58:18.241Z,20.34
2023-07-02T12:00:45.432Z,20.50
2023-07-02T12:03:13.303Z,20.86
2023-07-02T12:05:40.541Z,20.89
2023-07-02T12:08:08.555Z,20.76
2023-07-02T12:10:37.805Z,20.82
2023-07-02T12:13:05.942Z,20.83
2023-07-02T12:15:33.172Z,20.83
2023-07-02T12:18:00.467Z,20.87
2023-07-02T12:20:27.726Z,20.98
2023-07-02T12:22:54.896Z,20.99
2023-07-02T12:25:22.264Z,20.84
2023-07-02T12:27:49.518Z,20.74
2023-07-02T12:30:18.524Z,20.76
2023-07-02T12:32:46.118Z,20.84
2023-07-02T12:35:13.553Z,20.80
2023-07-02T12:37:48.458Z,20.83
2023-07-02T12:40:16.013Z,20.98
2023-07-02T12:42:44.479Z,20.79
2023-07-02T12:45:13.231Z,20.93
2023-07-02T12:47:42.178Z,21.18
2023-07-02T12:50:11.043Z,21.02
2023-07-02T12:52:38.772Z,20.85
2023-07-02T12:55:06.556Z,20.95
2023-07-02T12:57:33.756Z,21.01
2023-07-02T13:00:01.039Z,20.92
2023-07-02T13:02:29.294Z,20.84
2023-07-02T13:04:56.608Z,21.04
2023-07-02T13:07:25.196Z,21.29
2023-07-02T13:09:52.574Z,21.37
2023-07-02T13:12:19.773Z,21.30
2023-07-02T13:14:47.266Z,21.30
2023-07-02T13:17:14.480Z,21.22
2023-07-02T13:19:41.645Z,21.16
2023-07-02T13:22:08.949Z,21.12
2023-07-02T13:24:39.020Z,20.95
2023-07-02T13:27:10.289Z,20.93
2023-07-02T13:29:37.616Z,21.03
2023-07-02T13:32:05.219Z,21.16
2023-07-02T13:34:32.470Z,21.04
2023-07-02T13:36:59.676Z,20.87
2023-07-02T13:39:26.862Z,20.87
2023-07-02T13:41:54.048Z,20.91
2023-07-02T13:46:48.514Z,21.14
2023-07-02T13:49:15.681Z,21.17
2023-07-02T13:51:42.884Z,21.43
2023-07-02T13:54:13.688Z,21.42
2023-07-02T13:56:40.897Z,21.30
2023-07-02T13:59:08.539Z,21.35
2023-07-02T14:01:35.831Z,21.35
2023-07-02T14:04:04.748Z,21.25
2023-07-02T14:06:32.548Z,21.06
2023-07-02T14:08:59.794Z,20.92
2023-07-02T14:11:29.038Z,20.97
2023-07-02T14:13:56.838Z,21.24
2023-07-02T14:16:25.314Z,21.23
2023-07-02T14:18:53.242Z,20.92
2023-07-02T14:21:21.037Z,20.70
2023-07-02T14:23:48.227Z,20.55
2023-07-02T14:26:15.412Z,20.52
2023-07-02T14:28:42.676Z,20.62
2023-07-02T14:31:10.521Z,20.88
2023-07-02T14:33:38.993Z,21.12
2023-07-02T14:36:07.328Z,21.27
2023-07-02T14:38:35.628Z,21.15
2023-07-02T14:41:03.392Z,21.15
2023-07-02T14:43:32.146Z,20.96
2023-07-02T14:46:02.160Z,20.92
2023-07-02T14:48:29.764Z,20.77
2023-07-02T14:50:59.749Z,20.76
2023-07-02T14:53:28.458Z,20.72
2023-07-02T14:55:57.287Z,20.61
2023-07-02T14:58:26.663Z,20.45
2023-07-02T15:00:56.203Z,20.37
2023-07-02T15:03:25.975Z,20.43
2023-07-02T15:05:54.449Z,20.53
2023-07-02T15:08:22.751Z,20.52
2023-07-02T15:10:52.553Z,20.41
2023-07-02T15:13:22.947Z,20.42
2023-07-02T15:15:52.155Z,20.49
2023-07-02T15:18:21.474Z,20.76
2023-07-02T15:20:52.743Z,21.11
2023-07-02T15:23:21.625Z,21.59
2023-07-02T15:25:56.748Z,21.64
2023-07-02T15:28:25.102Z,21.41
2023-07-02T15:30:57.470Z,21.35
2023-07-02T15:33:25.517Z,21.90
2023-07-02T15:35:53.435Z,21.56
2023-07-02T15:38:21.588Z,21.24
2023-07-02T15:40:50.492Z,21.21
2023-07-02T15:43:17.744Z,21.19
2023-07-02T15:45:44.917Z,21.10
2023-07-02T15:48:14.874Z,21.11
2023-07-02T15:50:42.036Z,21.13
2023-07-02T15:53:09.245Z,20.90
2023-07-02T15:55:36.865Z,20.85
2023-07-02T15:58:04.089Z,20.85
2023-07-02T16:00:31.589Z,20.76
2023-07-02T16:02:58.943Z,20.88
2023-07-02T16:05:26.675Z,21.26
2023-07-02T16:07:54.076Z,20.94
2023-07-02T16:10:21.438Z,20.74
2023-07-02T16:12:49.791Z,20.68
2023-07-02T16:15:17.296Z,20.58
2023-07-02T16:17:44.560Z,20.60
2023-07-02T16:20:12.536Z,20.55
2023-07-02T16:22:39.845Z,20.46
2023-07-02T16:25:07.553Z,20.50
2023-07-02T16:27:35.919Z,20.50
2023-07-02T16:30:04.534Z,20.51
2023-07-02T16:32:32.990Z,20.54
2023-07-02T16:35:00.244Z,20.47
2023-07-02T16:37:27.736Z,20.35
2023-07-02T16:39:55.303Z,20.39
2023-07-02T16:42:22.571Z,20.55
2023-07-02T16:44:49.906Z,20.69
2023-07-02T16:47:17.147Z,20.76
2023-07-02T16:49:47.677Z,20.54
2023-07-02T16:52:15.969Z,20.37
2023-07-02T16:54:43.462Z,20.32
2023-07-02T16:57:10.687Z,20.23
2023-07-02T16:59:40.761Z,20.24
2023-07-02T17:02:10.207Z,20.17
2023-07-02T17:04:37.546Z,20.20
2023-07-02T17:07:05.024Z,20.17
2023-07-02T17:09:40.675Z,20.28
2023-07-02T17:12:12.823Z,20.47
2023-07-02T17:14:41.064Z,20.49
2023-07-02T17:17:11.669Z,20.31
2023-07-02T17:19:41.942Z,20.16
2023-07-02T17:22:12.292Z,20.10
2023-07-02T17:24:42.519Z,20.10
2023-07-02T17:27:11.928Z,20.18
2023-07-02T17:29:39.694Z,20.20
2023-07-02T17:32:09.507Z,20.21
2023-07-02T17:34:38.525Z,20.24
2023-07-02T17:37:07.777Z,20.42
2023-07-02T17:39:36.777Z,20.31
2023-07-02T17:42:05.221Z,20.21
2023-07-02T17:44:35.837Z,20.06
2023-07-02T17:47:06.878Z,20.10
2023-07-02T17:49:37.979Z,20.09
2023-07-02T17:52:06.587Z,20.05
2023-07-02T17:54:59.584Z,20.01
2023-07-02T17:57:26.837Z,19.96
2023-07-02T17:59:56.981Z,19.90
2023-07-02T18:02:24.482Z,19.83
2023-07-02T18:04:51.902Z,19.88
2023-07-02T18:07:21.307Z,19.90
2023-07-02T18:09:51.017Z,19.90
2023-07-02T18:12:26.467Z,19.85
2023-07-02T18:14:57.394Z,19.70
2023-07-02T18:17:24.860Z,19.62
2023-07-02T18:19:54.284Z,19.57
2023-07-02T18:22:22.208Z,19.52
2023-07-02T18:24:49.480Z,19.49
2023-07-02T18:27:17.416Z,19.58
2023-07-02T18:29:44.823Z,19.59
2023-07-02T18:32:12.022Z,19.58
2023-07-02T18:34:41.019Z,19.53
2023-07-02T18:37:11.027Z,19.33
2023-07-02T18:39:38.877Z,19.31
2023-07-02T18:42:09.270Z,19.33
2023-07-02T18:44:37.187Z,19.31
2023-07-02T18:47:07.740Z,19.27
2023-07-02T18:49:36.412Z,19.18
2023-07-02T18:52:15.132Z,19.23
2023-07-02T18:54:42.836Z,19.19
2023-07-02T18:57:12.091Z,19.23
2023-07-02T18:59:41.505Z,19.21
2023-07-02T19:02:08.847Z,19.16
2023-07-02T19:04:36.173Z,19.11
2023-07-02T19:07:06.174Z,19.08
2023-07-02T19:09:37.645Z,19.03
2023-07-02T19:12:08.485Z,18.98
2023-07-02T19:14:39.766Z,18.88
2023-07-02T19:17:10.222Z,18.84
2023-07-02T19:19:41.266Z,18.85
2023-07-02T19:22:12.972Z,18.84
2023-07-02T19:24:40.779Z,18.84
2023-07-02T19:27:10.758Z,18.78
2023-07-02T19:29:38.694Z,18.63
2023-07-02T19:32:06.485Z,18.68
2023-07-02T19:34:34.096Z,18.60
2023-07-02T19:37:01.683Z,18.53
2023-07-02T19:39:31.738Z,18.55
2023-07-02T19:41:59.181Z,18.50
2023-07-02T19:44:26.556Z,18.40
2023-07-02T19:46:53.781Z,18.39
2023-07-02T19:49:21.484Z,18.38
2023-07-02T19:51:51.503Z,18.46
2023-07-02T19:54:20.374Z,18.40
2023-07-02T19:56:49.972Z,18.39
2023-07-02T19:59:17.924Z,18.34
2023-07-02T20:01:45.419Z,18.23
2023-07-02T20:04:23.128Z,18.21
2023-07-02T20:06:50.909Z,18.19
2023-07-02T20:09:18.598Z,18.15
2023-07-02T20:11:45.898Z,18.16
2023-07-02T20:14:13.137Z,18.16
2023-07-02T20:16:40.800Z,18.09
2023-07-02T20:19:08.103Z,18.11
2023-07-02T20:21:35.332Z,18.15
2023-07-02T20:24:05.898Z,18.15
2023-07-02T20:26:35.520Z,18.07
2023-07-02T20:29:03.228Z,17.97
2023-07-02T20:31:31.595Z,17.96
2023-07-02T20:34:03.221Z,17.96
2023-07-02T20:36:32.341Z,17.88
2023-07-02T20:39:00.628Z,17.83
2023-07-02T20:41:29.235Z,17.95
2023-07-02T20:44:04.984Z,17.96
2023-07-02T20:46:32.805Z,17.91
2023-07-02T20:49:00.338Z,17.89
2023-07-02T20:51:28.074Z,17.88
2023-07-02T20:53:55.421Z,17.81
2023-07-02T20:56:22.759Z,17.82
2023-07-02T20:58:51.443Z,17.74
2023-07-02T21:01:18.745Z,17.76
2023-07-02T21:03:46.146Z,17.75
2023-07-02T21:06:13.642Z,17.74
2023-07-02T21:08:40.915Z,17.76
2023-07-02T21:11:20.326Z,17.71
2023-07-02T21:13:56.344Z,17.72
2023-07-02T21:16:24.155Z,17.73
2023-07-02T21:18:51.770Z,17.76
2023-07-02T21:21:19.119Z,17.77
2023-07-02T21:23:46.409Z,17.78
2023-07-02T21:26:13.658Z,17.78
2023-07-02T21:28:40.913Z,17.74
2023-07-02T21:31:08.317Z,17.73
2023-07-02T21:33:35.541Z,17.67
2023-07-02T21:36:08.700Z,17.66
2023-07-02T21:38:38.579Z,17.64
2023-07-02T21:41:07.289Z,17.62
2023-07-02T21:43:35.193Z,17.61
2023-07-02T21:46:04.752Z,17.68
2023-07-02T21:48:32.131Z,17.64
2023-07-02T21:50:59.378Z,17.49
2023-07-02T21:53:26.683Z,17.55
2023-07-02T21:55:54.081Z,17.54
2023-07-02T21:58:21.714Z,17.51
2023-07-02T22:00:49.173Z,17.55
2023-07-02T22:03:16.924Z,17.54
2023-07-02T22:05:44.201Z,17.58
2023-07-02T22:08:11.431Z,17.56
2023-07-02T22:10:38.636Z,17.54
2023-07-02T22:13:06.930Z,17.60
2023-07-02T22:15:34.201Z,17.52
2023-07-02T22:18:04.138Z,17.51
2023-07-02T22:20:33.636Z,17.52
2023-07-02T22:23:01.844Z,17.56
2023-07-02T22:25:29.626Z,17.65
2023-07-02T22:27:57.383Z,17.62
2023-07-02T22:30:24.860Z,17.59
2023-07-02T22:32:52.192Z,17.56
2023-07-02T22:35:20.008Z,17.63
2023-07-02T22:37:47.842Z,17.59
2023-07-02T22:40:17.815Z,17.53
2023-07-02T22:42:45.883Z,17.60
2023-07-02T22:45:15.181Z,17.53
2023-07-02T22:47:43.791Z,17.51
2023-07-02T22:50:13.670Z,17.54
2023-07-02T22:52:40.894Z,17.61
2023-07-02T22:55:08.662Z,17.59
2023-07-02T22:57:36.455Z,17.62
2023-07-02T23:00:13.430Z,17.56
2023-07-02T23:02:46.450Z,17.54
2023-07-02T23:05:18.350Z,17.49
2023-07-02T23:07:47.512Z,17.51
2023-07-02T23:10:17.403Z,17.52
2023-07-02T23:12:49.750Z,17.52
2023-07-02T23:15:19.761Z,17.49
2023-07-02T23:17:52.272Z,17.53
2023-07-02T23:20:20.305Z,17.50
2023-07-02T23:22:49.625Z,17.54
2023-07-02T23:25:21.718Z,17.56
2023-07-02T23:27:50.346Z,17.57
2023-07-02T23:30:20.976Z,17.57
2023-07-02T23:32:50.036Z,17.63
2023-07-02T23:35:17.457Z,17.52
2023-07-02T23:37:46.816Z,17.49
2023-07-02T23:40:17.596Z,17.61
2023-07-02T23:42:45.517Z,17.61
2023-07-02T23:45:14.471Z,17.55
2023-07-02T23:47:44.023Z,17.59
2023-07-02T23:50:13.214Z,17.60
2023-07-02T23:52:40.741Z,17.58
2023-07-02T23:55:11.515Z,17.58
2023-07-02T23:57:39.251Z,17.59
